Terminal Aerodrome Forecast
Issued by NWS

Home | Current Version | Previous Version | Text Only | Print | Product List | Glossary On
Versions: 1 2 3 4 5 6 7 8 9 10 11 12 13 14 15 16 17 18 19 20 21 22 23 24 25 26 27 28 29 30 31 32 33 34 35
000
FTUS43 KDMX 060520
TAFOTM
TAF
KOTM 060520Z 0606/0706 10008KT 4SM BR SCT040 BKN100
     FM060800 11009KT 1SM BR BKN007
     FM061400 16013KT P6SM FEW020 SCT150
     FM061800 17016G24KT P6SM SCT050 BKN200
     FM070000 15009KT P6SM VCSH BKN050=

USA.gov is the U.S. government's official web portal to all federal, state and local government web resources and services.